createdAt,value
2022-12-17T00:00:46.324Z,96.97
2022-12-17T00:03:41.877Z,96.12
2022-12-17T00:06:28.165Z,97.10
2022-12-17T00:09:15.082Z,99.14
2022-12-17T00:12:04.494Z,99.55
2022-12-17T00:14:51.727Z,100.00
2022-12-17T00:17:38.182Z,100.00
2022-12-17T00:20:25.523Z,100.00
2022-12-17T00:23:23.593Z,100.00
2022-12-17T00:26:15.354Z,100.00
2022-12-17T00:29:01.703Z,100.00
2022-12-17T00:31:49.256Z,100.00
2022-12-17T00:34:35.314Z,100.00
2022-12-17T00:37:24.673Z,100.00
2022-12-17T00:40:30.794Z,100.00
2022-12-17T00:43:22.965Z,100.00
2022-12-17T00:46:10.190Z,100.00
2022-12-17T00:48:57.461Z,100.00
2022-12-17T00:51:44.597Z,100.00
2022-12-17T00:54:31.296Z,100.00
2022-12-17T00:57:17.655Z,100.00
2022-12-17T01:00:04.131Z,100.00
2022-12-17T01:02:50.613Z,100.00
2022-12-17T01:05:37.946Z,100.00
2022-12-17T01:08:32.897Z,100.00
2022-12-17T01:11:25.723Z,100.00
2022-12-17T01:14:12.391Z,100.00
2022-12-17T01:16:59.002Z,100.00
2022-12-17T01:19:45.311Z,100.00
2022-12-17T01:22:31.860Z,100.00
2022-12-17T01:25:18.928Z,100.00
2022-12-17T01:28:09.828Z,100.00
2022-12-17T01:30:57.060Z,100.00
2022-12-17T01:33:43.699Z,100.00
2022-12-17T01:36:29.879Z,100.00
2022-12-17T01:39:16.688Z,100.00
2022-12-17T01:42:02.764Z,100.00
2022-12-17T01:44:57.608Z,100.00
2022-12-17T01:48:10.844Z,100.00
2022-12-17T01:51:02.714Z,100.00
2022-12-17T01:53:56.492Z,100.00
2022-12-17T01:56:45.719Z,100.00
2022-12-17T01:59:34.061Z,100.00
2022-12-17T02:02:21.508Z,100.00
2022-12-17T02:05:21.483Z,100.00
2022-12-17T02:08:10.951Z,100.00
2022-12-17T02:11:36.460Z,100.00
2022-12-17T02:15:09.711Z,100.00
2022-12-17T02:18:04.415Z,100.00
2022-12-17T02:21:10.071Z,100.00
2022-12-17T02:24:08.704Z,100.00
2022-12-17T02:27:09.291Z,100.00
2022-12-17T02:30:12.770Z,100.00
2022-12-17T02:33:03.131Z,100.00
2022-12-17T02:36:08.003Z,100.00
2022-12-17T02:38:54.560Z,100.00
2022-12-17T02:42:10.622Z,100.00
2022-12-17T02:44:59.473Z,100.00
2022-12-17T02:47:47.900Z,100.00
2022-12-17T02:50:35.901Z,100.00
2022-12-17T02:53:23.006Z,100.00
2022-12-17T02:56:09.728Z,100.00
2022-12-17T02:58:57.693Z,100.00
2022-12-17T03:01:45.343Z,100.00
2022-12-17T03:04:31.582Z,100.00
2022-12-17T03:07:18.081Z,100.00
2022-12-17T03:10:04.129Z,100.00
2022-12-17T03:12:52.753Z,100.00
2022-12-17T03:15:38.818Z,100.00
2022-12-17T03:18:25.604Z,100.00
2022-12-17T03:21:13.275Z,100.00
2022-12-17T03:23:59.946Z,100.00
2022-12-17T03:26:46.189Z,100.00
2022-12-17T03:29:32.655Z,100.00
2022-12-17T03:32:18.928Z,100.00
2022-12-17T03:35:05.381Z,100.00
2022-12-17T03:37:51.554Z,100.00
2022-12-17T03:40:38.041Z,100.00
2022-12-17T03:43:29.402Z,100.00
2022-12-17T03:46:16.454Z,100.00
2022-12-17T03:49:02.728Z,100.00
2022-12-17T03:51:49.329Z,100.00
2022-12-17T03:54:35.487Z,100.00
2022-12-17T03:57:22.012Z,100.00
2022-12-17T04:00:07.975Z,100.00
2022-12-17T04:03:14.889Z,100.00
2022-12-17T04:06:01.175Z,100.00
2022-12-17T04:08:47.624Z,100.00
2022-12-17T04:11:34.074Z,100.00
2022-12-17T04:14:20.592Z,100.00
2022-12-17T04:17:06.742Z,100.00
2022-12-17T04:19:53.191Z,100.00
2022-12-17T04:22:39.384Z,100.00
2022-12-17T04:25:26.457Z,100.00
2022-12-17T04:28:12.886Z,100.00
2022-12-17T04:30:59.370Z,100.00
2022-12-17T04:33:45.581Z,100.00
2022-12-17T04:36:32.244Z,100.00
2022-12-17T04:39:18.087Z,100.00
2022-12-17T04:42:04.782Z,100.00
2022-12-17T04:44:51.128Z,100.00
2022-12-17T04:47:37.733Z,100.00
2022-12-17T04:50:24.345Z,100.00
2022-12-17T04:53:20.223Z,100.00
2022-12-17T04:56:06.911Z,100.00
2022-12-17T04:58:56.538Z,100.00
2022-12-17T05:01:43.488Z,100.00
2022-12-17T05:04:30.155Z,100.00
2022-12-17T05:07:19.469Z,100.00
2022-12-17T05:10:06.164Z,100.00
2022-12-17T05:12:52.468Z,100.00
2022-12-17T05:15:38.813Z,100.00
2022-12-17T05:18:26.776Z,100.00
2022-12-17T05:21:13.767Z,100.00
2022-12-17T05:23:59.917Z,100.00
2022-12-17T05:26:48.275Z,100.00
2022-12-17T05:29:34.664Z,100.00
2022-12-17T05:32:21.592Z,100.00
2022-12-17T05:35:07.820Z,100.00
2022-12-17T05:37:54.426Z,100.00
2022-12-17T05:40:40.772Z,100.00
2022-12-17T05:43:31.689Z,100.00
2022-12-17T05:46:18.146Z,100.00
2022-12-17T05:49:04.431Z,100.00
2022-12-17T05:51:53.819Z,100.00
2022-12-17T05:54:40.569Z,100.00
2022-12-17T05:57:26.879Z,100.00
2022-12-17T06:00:13.752Z,100.00
2022-12-17T06:03:00.113Z,100.00
2022-12-17T06:05:46.802Z,100.00
2022-12-17T06:08:33.236Z,100.00
2022-12-17T06:11:19.937Z,100.00
2022-12-17T06:14:06.263Z,100.00
2022-12-17T06:16:52.949Z,100.00
2022-12-17T06:19:38.942Z,100.00
2022-12-17T06:22:25.437Z,100.00
2022-12-17T06:25:11.522Z,100.00
2022-12-17T06:27:58.113Z,100.00
2022-12-17T06:30:44.289Z,100.00
2022-12-17T06:33:31.384Z,100.00
2022-12-17T06:36:22.637Z,100.00
2022-12-17T06:39:09.727Z,100.00
2022-12-17T06:42:02.192Z,100.00
2022-12-17T06:44:51.123Z,100.00
2022-12-17T06:47:37.571Z,100.00
2022-12-17T06:50:24.799Z,100.00
2022-12-17T06:53:37.514Z,100.00
2022-12-17T06:56:24.688Z,100.00
2022-12-17T06:59:10.827Z,100.00
2022-12-17T07:01:57.305Z,100.00
2022-12-17T07:05:00.526Z,100.00
2022-12-17T07:07:46.827Z,100.00
2022-12-17T07:10:35.374Z,100.00
2022-12-17T07:13:28.322Z,100.00
2022-12-17T07:16:15.001Z,100.00
2022-12-17T07:19:01.334Z,100.00
2022-12-17T07:21:47.596Z,100.00
2022-12-17T07:24:34.315Z,100.00
2022-12-17T07:27:20.489Z,100.00
2022-12-17T07:30:06.762Z,100.00
2022-12-17T07:32:53.013Z,100.00
2022-12-17T07:35:39.241Z,100.00
2022-12-17T07:38:25.542Z,100.00
2022-12-17T07:41:15.259Z,100.00
2022-12-17T07:44:01.577Z,100.00
2022-12-17T07:46:48.589Z,100.00
2022-12-17T07:49:34.901Z,100.00
2022-12-17T07:52:21.489Z,100.00
2022-12-17T07:55:07.635Z,100.00
2022-12-17T07:57:54.388Z,100.00
2022-12-17T08:00:46.012Z,99.27
2022-12-17T08:03:36.339Z,99.51
2022-12-17T08:06:23.216Z,99.95
2022-12-17T08:09:09.814Z,100.00
2022-12-17T08:11:55.983Z,100.00
2022-12-17T08:14:42.490Z,100.00
2022-12-17T08:17:28.788Z,99.69
2022-12-17T08:20:15.727Z,99.75
2022-12-17T08:23:01.972Z,99.52
2022-12-17T08:25:48.405Z,98.45
2022-12-17T08:28:50.597Z,98.25
2022-12-17T08:31:38.264Z,98.89
2022-12-17T08:34:24.664Z,98.81
2022-12-17T08:37:11.572Z,98.55
2022-12-17T08:39:57.847Z,98.49
2022-12-17T08:42:44.403Z,98.45
2022-12-17T08:45:30.956Z,98.76
2022-12-17T08:48:25.352Z,96.31
2022-12-17T08:51:12.708Z,96.77
2022-12-17T08:53:59.144Z,97.87
2022-12-17T08:56:45.529Z,97.97
2022-12-17T08:59:32.275Z,99.11
2022-12-17T09:02:20.844Z,98.66
2022-12-17T09:05:07.372Z,99.50
2022-12-17T09:07:53.786Z,97.75
2022-12-17T09:10:40.384Z,97.18
2022-12-17T09:13:26.838Z,96.23
2022-12-17T09:16:15.084Z,95.99
2022-12-17T09:19:18.581Z,96.65
2022-12-17T09:22:05.306Z,94.41
2022-12-17T09:24:51.371Z,91.70
2022-12-17T09:27:38.242Z,92.64
2022-12-17T09:30:25.363Z,93.56
2022-12-17T09:33:11.555Z,95.04
2022-12-17T09:35:58.753Z,95.29
2022-12-17T09:38:44.902Z,94.88
2022-12-17T09:41:57.113Z,94.67
2022-12-17T09:45:02.586Z,94.31
2022-12-17T09:48:16.965Z,92.82
2022-12-17T09:51:09.118Z,93.95
2022-12-17T09:54:03.243Z,94.39
2022-12-17T09:56:51.919Z,93.63
2022-12-17T09:59:48.279Z,93.18
2022-12-17T10:02:40.677Z,93.56
2022-12-17T10:05:51.971Z,92.54
2022-12-17T10:08:41.123Z,91.89
2022-12-17T10:11:45.806Z,90.74
2022-12-17T10:14:44.362Z,92.34
2022-12-17T10:17:38.131Z,92.58
2022-12-17T10:21:02.735Z,93.55
2022-12-17T10:23:52.402Z,93.12
2022-12-17T10:26:48.952Z,93.24
2022-12-17T10:29:47.657Z,88.02
2022-12-17T10:32:34.909Z,84.61
2022-12-17T10:35:26.164Z,84.52
2022-12-17T10:38:12.912Z,84.18
2022-12-17T10:40:59.955Z,86.16
2022-12-17T10:43:57.208Z,84.49
2022-12-17T10:46:47.247Z,84.60
2022-12-17T10:49:41.442Z,84.32
2022-12-17T10:52:50.962Z,84.05
2022-12-17T10:55:56.059Z,84.30
2022-12-17T10:58:47.554Z,84.64
2022-12-17T11:02:03.965Z,84.20
2022-12-17T11:04:56.222Z,85.61
2022-12-17T11:07:55.986Z,85.22
2022-12-17T11:10:46.623Z,85.11
2022-12-17T11:14:04.097Z,84.59
2022-12-17T11:16:57.484Z,85.57
2022-12-17T11:20:07.768Z,85.47
2022-12-17T11:23:08.178Z,84.29
2022-12-17T11:26:19.082Z,84.21
2022-12-17T11:29:05.345Z,84.87
2022-12-17T11:32:16.449Z,84.85
2022-12-17T11:35:20.843Z,83.62
2022-12-17T11:38:24.057Z,84.19
2022-12-17T11:42:06.584Z,84.00
2022-12-17T11:45:13.260Z,85.36
2022-12-17T11:48:16.867Z,84.61
2022-12-17T11:51:36.845Z,86.33
2022-12-17T11:54:51.162Z,86.37
2022-12-17T11:57:44.069Z,88.82
2022-12-17T12:00:41.200Z,88.74
2022-12-17T12:04:09.113Z,87.60
2022-12-17T12:07:37.066Z,87.73
2022-12-17T12:10:44.469Z,88.58
2022-12-17T12:13:48.650Z,89.52
2022-12-17T12:16:46.782Z,88.14
2022-12-17T12:19:56.160Z,89.34
2022-12-17T12:23:23.934Z,88.46
2022-12-17T12:26:31.879Z,89.21
2022-12-17T12:29:21.245Z,89.81
2022-12-17T12:32:35.770Z,88.71
2022-12-17T12:35:37.523Z,88.87
2022-12-17T12:38:24.668Z,88.98
2022-12-17T12:41:25.380Z,88.33
2022-12-17T12:44:18.349Z,87.22
2022-12-17T12:47:18.145Z,87.44
2022-12-17T12:50:39.668Z,87.35
2022-12-17T12:53:31.091Z,87.31
2022-12-17T12:56:17.130Z,87.18
2022-12-17T12:59:03.239Z,85.13
2022-12-17T13:01:55.898Z,87.21
2022-12-17T13:04:54.581Z,86.20
2022-12-17T13:07:29.278Z,85.84
2022-12-17T13:09:59.322Z,86.55
2022-12-17T13:12:44.247Z,87.18
2022-12-17T13:15:37.081Z,86.81
2022-12-17T13:18:27.525Z,87.38
2022-12-17T13:21:15.056Z,87.23
2022-12-17T13:23:43.345Z,86.34
2022-12-17T13:26:39.077Z,86.67
2022-12-17T13:29:33.068Z,87.72
2022-12-17T13:32:01.113Z,88.47
2022-12-17T13:35:15.372Z,87.69
2022-12-17T13:37:45.809Z,87.17
2022-12-17T13:41:18.658Z,88.22
2022-12-17T13:43:54.376Z,87.28
2022-12-17T13:46:30.362Z,88.56
2022-12-17T13:49:19.419Z,89.00
2022-12-17T13:51:47.734Z,89.37
2022-12-17T13:54:19.838Z,88.32
2022-12-17T13:56:47.772Z,87.46
2022-12-17T13:59:24.238Z,88.25
2022-12-17T14:01:54.039Z,87.23
2022-12-17T14:04:28.473Z,87.23
2022-12-17T14:07:06.021Z,86.78
2022-12-17T14:09:43.337Z,87.57
2022-12-17T14:12:23.747Z,87.36
2022-12-17T14:15:00.019Z,87.57
2022-12-17T14:17:35.775Z,87.96
2022-12-17T14:20:36.992Z,88.73
2022-12-17T14:23:33.424Z,88.31
2022-12-17T14:26:01.659Z,89.12
2022-12-17T14:28:37.107Z,89.01
2022-12-17T14:31:31.065Z,88.24
2022-12-17T14:34:08.541Z,87.55
2022-12-17T14:36:42.790Z,87.78
2022-12-17T14:39:31.205Z,87.50
2022-12-17T14:42:27.012Z,87.59
2022-12-17T14:45:06.997Z,87.56
2022-12-17T14:47:37.797Z,87.80
2022-12-17T14:50:13.983Z,86.90
2022-12-17T14:52:46.354Z,87.14
2022-12-17T14:55:37.089Z,87.62
2022-12-17T14:58:16.679Z,87.57
2022-12-17T15:00:50.422Z,87.88
2022-12-17T15:03:46.128Z,86.89
2022-12-17T15:06:18.665Z,87.61
2022-12-17T15:08:49.150Z,88.08
2022-12-17T15:11:20.435Z,88.25
2022-12-17T15:13:54.419Z,87.91
2022-12-17T15:16:24.414Z,88.36
2022-12-17T15:18:52.353Z,89.06
2022-12-17T15:21:20.544Z,87.84
2022-12-17T15:23:48.858Z,88.06
2022-12-17T15:26:17.434Z,87.84
2022-12-17T15:28:45.546Z,88.08
2022-12-17T15:31:15.162Z,86.93
2022-12-17T15:33:43.845Z,86.90
2022-12-17T15:36:12.532Z,87.89
2022-12-17T15:38:40.712Z,88.38
2022-12-17T15:41:28.640Z,88.77
2022-12-17T15:43:56.746Z,87.93
2022-12-17T15:46:26.335Z,87.36
2022-12-17T15:48:54.257Z,86.56
2022-12-17T15:51:23.557Z,86.09
2022-12-17T15:53:51.567Z,87.35
2022-12-17T15:56:25.847Z,86.90
2022-12-17T15:58:56.916Z,86.16
2022-12-17T16:01:25.141Z,86.00
2022-12-17T16:03:53.332Z,84.52
2022-12-17T16:06:20.988Z,84.92
2022-12-17T16:08:48.936Z,84.69
2022-12-17T16:11:16.657Z,84.82
2022-12-17T16:13:45.305Z,84.61
2022-12-17T16:16:13.104Z,84.61
2022-12-17T16:18:41.449Z,84.16
2022-12-17T16:21:09.891Z,84.46
2022-12-17T16:23:38.101Z,83.98
2022-12-17T16:26:09.507Z,83.79
2022-12-17T16:28:37.911Z,84.49
2022-12-17T16:31:14.893Z,84.68
2022-12-17T16:33:44.692Z,85.29
2022-12-17T16:36:15.694Z,85.77
2022-12-17T16:38:47.074Z,85.58
2022-12-17T16:41:15.722Z,85.47
2022-12-17T16:43:44.190Z,85.40
2022-12-17T16:46:39.599Z,85.82
2022-12-17T16:49:20.057Z,85.61
2022-12-17T16:51:53.005Z,84.05
2022-12-17T16:54:26.209Z,81.49
2022-12-17T16:56:54.324Z,81.67
2022-12-17T16:59:23.538Z,82.18
2022-12-17T17:01:52.777Z,83.27
2022-12-17T17:04:23.016Z,83.76
2022-12-17T17:06:57.164Z,84.35
2022-12-17T17:09:26.668Z,84.62
2022-12-17T17:11:59.201Z,84.83
2022-12-17T17:14:27.972Z,85.39
2022-12-17T17:16:55.581Z,85.31
2022-12-17T17:19:23.547Z,86.31
2022-12-17T17:21:54.259Z,85.95
2022-12-17T17:24:25.530Z,84.04
2022-12-17T17:26:55.240Z,84.02
2022-12-17T17:29:23.324Z,85.13
2022-12-17T17:32:09.944Z,86.49
2022-12-17T17:34:40.283Z,84.70
2022-12-17T17:37:07.978Z,84.98
2022-12-17T17:39:36.077Z,84.72
2022-12-17T17:42:03.925Z,85.41
2022-12-17T17:44:32.168Z,84.06
2022-12-17T17:47:00.319Z,83.38
2022-12-17T17:49:28.932Z,83.24
2022-12-17T17:52:12.466Z,83.63
2022-12-17T17:54:41.031Z,82.82
2022-12-17T17:57:10.131Z,83.19
2022-12-17T17:59:39.651Z,83.81
2022-12-17T18:02:09.736Z,83.20
2022-12-17T18:04:38.663Z,82.83
2022-12-17T18:07:24.748Z,83.28
2022-12-17T18:09:53.784Z,83.74
2022-12-17T18:12:41.524Z,84.33
2022-12-17T18:15:15.730Z,84.79
2022-12-17T18:17:51.781Z,85.81
2022-12-17T18:20:19.762Z,85.08
2022-12-17T18:22:47.617Z,84.80
2022-12-17T18:25:16.701Z,85.08
2022-12-17T18:27:45.412Z,85.28
2022-12-17T18:30:14.442Z,85.65
2022-12-17T18:32:43.804Z,86.84
2022-12-17T18:35:11.946Z,85.83
2022-12-17T18:37:39.823Z,85.92
2022-12-17T18:40:08.982Z,85.00
2022-12-17T18:42:55.259Z,85.55
2022-12-17T18:45:23.427Z,84.69
2022-12-17T18:47:51.392Z,83.74
2022-12-17T18:50:19.514Z,82.89
2022-12-17T18:52:47.041Z,83.87
2022-12-17T18:55:14.904Z,82.87
2022-12-17T18:57:42.439Z,81.93
2022-12-17T19:00:11.468Z,81.85
2022-12-17T19:02:39.808Z,81.28
2022-12-17T19:05:08.551Z,82.14
2022-12-17T19:07:36.304Z,82.90
2022-12-17T19:10:05.076Z,83.60
2022-12-17T19:12:33.163Z,83.14
2022-12-17T19:15:01.047Z,82.93
2022-12-17T19:17:28.560Z,83.60
2022-12-17T19:19:56.490Z,84.09
2022-12-17T19:22:24.015Z,84.30
2022-12-17T19:24:52.130Z,83.17
2022-12-17T19:27:19.662Z,83.45
2022-12-17T19:29:49.874Z,83.09
2022-12-17T19:32:20.623Z,83.58
2022-12-17T19:34:48.539Z,82.71
2022-12-17T19:37:16.197Z,82.14
2022-12-17T19:39:45.628Z,81.25
2022-12-17T19:42:25.168Z,81.43
2022-12-17T19:44:57.271Z,81.98
2022-12-17T19:47:25.139Z,82.44
2022-12-17T19:49:53.113Z,82.77
2022-12-17T19:52:21.028Z,82.82
2022-12-17T19:54:49.498Z,83.14
2022-12-17T19:57:17.075Z,82.46
2022-12-17T19:59:44.903Z,84.04
2022-12-17T20:02:12.569Z,82.20
2022-12-17T20:04:40.729Z,82.35
2022-12-17T20:07:08.393Z,83.49
2022-12-17T20:09:36.435Z,83.39
2022-12-17T20:12:04.572Z,83.85
2022-12-17T20:14:34.411Z,83.23
2022-12-17T20:17:02.766Z,82.82
2022-12-17T20:19:33.380Z,82.49
2022-12-17T20:22:07.014Z,83.43
2022-12-17T20:24:35.500Z,84.37
2022-12-17T20:27:03.530Z,84.04
2022-12-17T20:29:32.248Z,83.65
2022-12-17T20:32:03.111Z,80.45
2022-12-17T20:34:31.160Z,80.77
2022-12-17T20:36:58.780Z,80.15
2022-12-17T20:39:28.241Z,80.24
2022-12-17T20:41:57.260Z,80.25
2022-12-17T20:44:25.499Z,79.03
2022-12-17T20:46:53.202Z,79.17
2022-12-17T20:49:21.121Z,80.12
2022-12-17T20:51:48.748Z,79.33
2022-12-17T20:54:16.674Z,80.25
2022-12-17T20:56:44.392Z,79.27
2022-12-17T20:59:17.627Z,80.05
2022-12-17T21:01:50.435Z,80.62
2022-12-17T21:04:21.208Z,79.06
2022-12-17T21:06:49.079Z,78.54
2022-12-17T21:09:20.256Z,78.05
2022-12-17T21:11:48.496Z,78.30
2022-12-17T21:14:18.933Z,77.97
2022-12-17T21:16:47.518Z,77.45
2022-12-17T21:19:19.054Z,77.39
2022-12-17T21:21:47.136Z,77.68
2022-12-17T21:24:15.024Z,76.16
2022-12-17T21:26:44.936Z,76.31
2022-12-17T21:29:14.736Z,75.71
2022-12-17T21:31:45.565Z,75.97
2022-12-17T21:34:22.218Z,77.26
2022-12-17T21:36:51.660Z,76.13
2022-12-17T21:39:20.573Z,76.81
2022-12-17T21:42:09.929Z,76.93
2022-12-17T21:44:38.024Z,76.89
2022-12-17T21:47:06.076Z,76.82
2022-12-17T21:49:34.146Z,76.78
2022-12-17T21:52:05.507Z,77.08
2022-12-17T21:54:38.628Z,76.21
2022-12-17T21:57:07.852Z,77.33
2022-12-17T21:59:35.756Z,77.63
2022-12-17T22:02:03.430Z,76.82
2022-12-17T22:04:31.588Z,77.63
2022-12-17T22:07:04.697Z,77.87
2022-12-17T22:09:57.654Z,78.01
2022-12-17T22:12:48.428Z,78.67
2022-12-17T22:15:17.089Z,78.11
2022-12-17T22:17:45.460Z,77.96
2022-12-17T22:20:16.551Z,77.40
2022-12-17T22:22:45.103Z,77.52
2022-12-17T22:25:13.808Z,78.07
2022-12-17T22:27:41.898Z,77.87
2022-12-17T22:30:35.417Z,77.87
2022-12-17T22:33:21.380Z,77.59
2022-12-17T22:37:19.808Z,77.57
2022-12-17T22:43:59.790Z,78.29
2022-12-17T22:44:35.785Z,77.75
2022-12-17T22:44:53.189Z,78.50
2022-12-17T22:47:22.432Z,78.32
2022-12-17T22:49:51.621Z,78.02
2022-12-17T22:52:20.534Z,78.09
2022-12-17T22:54:48.841Z,78.81
2022-12-17T22:57:34.943Z,78.64
2022-12-17T23:00:22.421Z,78.62
2022-12-17T23:02:54.598Z,78.75
2022-12-17T23:05:27.823Z,78.74
2022-12-17T23:07:56.543Z,79.23
2022-12-17T23:10:26.810Z,77.80
2022-12-17T23:12:56.223Z,76.90
2022-12-17T23:15:35.025Z,76.29
2022-12-17T23:18:07.077Z,75.55
2022-12-17T23:20:36.192Z,74.92
2022-12-17T23:23:04.085Z,75.00
2022-12-17T23:25:31.790Z,74.66
2022-12-17T23:27:59.823Z,74.69
2022-12-17T23:30:27.651Z,73.55
2022-12-17T23:32:55.693Z,74.07
2022-12-17T23:35:23.231Z,74.13
2022-12-17T23:37:51.267Z,74.43
2022-12-17T23:40:18.994Z,74.56
2022-12-17T23:42:46.911Z,75.08
2022-12-17T23:45:14.810Z,74.38
2022-12-17T23:47:42.862Z,74.94
2022-12-17T23:50:11.530Z,75.40
2022-12-17T23:52:39.792Z,75.72
2022-12-17T23:55:08.609Z,76.11
2022-12-17T23:57:36.498Z,75.80
